createdAt,value
2022-08-22T00:00:13.878Z,100264.69
2022-08-22T00:02:43.198Z,100239.75
2022-08-22T00:02:57.439Z,100254.78
2022-08-22T00:02:57.557Z,100254.28
2022-08-22T00:03:09.241Z,100253.72
2022-08-22T00:03:17.501Z,100264.50
2022-08-22T00:05:55.146Z,100265.31
2022-08-22T00:08:30.101Z,100267.75
2022-08-22T00:11:04.280Z,100263.88
2022-08-22T00:13:42.058Z,100267.09
2022-08-22T00:16:17.786Z,100265.06
2022-08-22T00:18:52.510Z,100272.97
2022-08-22T00:21:29.676Z,100269.22
2022-08-22T00:24:14.904Z,100269.97
2022-08-22T00:26:54.120Z,100269.97
2022-08-22T00:29:28.771Z,100269.44
2022-08-22T00:32:06.761Z,100272.88
2022-08-22T00:34:40.202Z,100277.25
2022-08-22T00:37:19.217Z,100269.34
2022-08-22T00:39:54.935Z,100272.19
2022-08-22T00:43:02.110Z,100272.19
2022-08-22T00:45:49.448Z,100271.06
2022-08-22T00:48:49.902Z,100268.53
2022-08-22T00:51:46.214Z,100268.16
2022-08-22T00:54:30.442Z,100273.41
2022-08-22T00:57:24.466Z,100269.13
2022-08-22T01:00:09.354Z,100273.41
2022-08-22T01:02:53.090Z,100269.97
2022-08-22T01:05:42.099Z,100272.31
2022-08-22T01:08:38.622Z,100270.28
2022-08-22T01:11:25.709Z,100274.44
2022-08-22T01:14:09.456Z,100274.22
2022-08-22T01:17:08.664Z,100271.28
2022-08-22T01:20:26.858Z,100270.69
2022-08-22T01:23:41.052Z,100270.34
2022-08-22T01:26:40.505Z,100271.16
2022-08-22T01:30:00.618Z,100273.19
2022-08-22T01:32:59.375Z,100268.94
2022-08-22T01:35:59.794Z,100274.22
2022-08-22T01:38:53.360Z,100281.31
2022-08-22T01:41:55.602Z,100272.38
2022-08-22T01:45:00.995Z,100282.91
2022-08-22T01:47:39.038Z,100298.72
2022-08-22T01:50:18.677Z,100295.31
2022-08-22T01:52:52.053Z,100297.13
2022-08-22T01:55:27.683Z,100298.25
2022-08-22T01:58:00.703Z,100306.22
2022-08-22T02:00:35.899Z,100299.66
2022-08-22T02:03:14.663Z,100290.31
2022-08-22T02:05:51.702Z,100290.81
2022-08-22T02:08:32.974Z,100289.00
2022-08-22T02:11:07.360Z,100283.22
2022-08-22T02:13:51.144Z,100279.97
2022-08-22T02:16:33.782Z,100285.03
2022-08-22T02:19:21.343Z,100290.81
2022-08-22T02:21:56.970Z,100293.63
2022-08-22T02:24:35.773Z,100290.84
2022-08-22T02:27:13.296Z,100288.19
2022-08-22T02:29:49.441Z,100282.50
2022-08-22T02:32:26.477Z,100289.78
2022-08-22T02:35:04.715Z,100292.66
2022-08-22T02:37:42.106Z,100296.09
2022-08-22T02:40:27.490Z,100294.66
2022-08-22T02:43:04.067Z,100291.63
2022-08-22T02:45:41.371Z,100292.66
2022-08-22T02:48:27.728Z,100292.38
2022-08-22T02:51:05.368Z,100288.41
2022-08-22T02:53:40.967Z,100286.25
2022-08-22T02:56:16.767Z,100290.41
2022-08-22T02:58:53.639Z,100293.03
2022-08-22T03:01:38.780Z,100291.72
2022-08-22T03:04:26.454Z,100294.50
2022-08-22T03:07:12.672Z,100295.50
2022-08-22T03:09:48.916Z,100308.75
2022-08-22T03:12:28.699Z,100298.53
2022-08-22T03:15:07.698Z,100302.59
2022-08-22T03:17:48.352Z,100300.34
2022-08-22T03:20:37.159Z,100312.34
2022-08-22T03:23:14.454Z,100308.88
2022-08-22T03:25:50.063Z,100308.06
2022-08-22T03:28:26.315Z,100314.75
2022-08-22T03:31:01.827Z,100309.09
2022-08-22T03:33:32.540Z,100311.75
2022-08-22T03:36:07.815Z,100318.22
2022-08-22T03:39:08.156Z,100316.16
2022-08-22T03:42:05.000Z,100306.09
2022-08-22T03:45:16.389Z,100312.81
2022-08-22T03:48:21.466Z,100315.31
2022-08-22T03:51:11.632Z,100313.50
2022-08-22T03:54:11.529Z,100314.53
2022-08-22T03:57:25.125Z,100310.66
2022-08-22T04:00:15.754Z,100305.38
2022-08-22T04:03:16.865Z,100303.25
2022-08-22T04:06:14.766Z,100306.75
2022-08-22T04:09:19.718Z,100303.28
2022-08-22T04:12:18.894Z,100311.16
2022-08-22T04:15:05.677Z,100318.13
2022-08-22T04:18:09.157Z,100306.31
2022-08-22T04:21:04.643Z,100305.53
2022-08-22T04:24:12.451Z,100315.69
2022-08-22T04:26:47.298Z,100310.03
2022-08-22T04:29:20.835Z,100317.81
2022-08-22T04:31:57.942Z,100313.56
2022-08-22T04:34:35.697Z,100318.56
2022-08-22T04:37:11.289Z,100315.19
2022-08-22T04:39:47.719Z,100304.78
2022-08-22T04:42:32.708Z,100305.69
2022-08-22T04:45:08.168Z,100309.59
2022-08-22T04:47:40.348Z,100303.22
2022-08-22T04:50:17.354Z,100302.22
2022-08-22T04:53:03.201Z,100303.75
2022-08-22T04:55:46.117Z,100307.19
2022-08-22T04:58:31.758Z,100302.84
2022-08-22T05:01:12.238Z,100314.44
2022-08-22T05:03:47.128Z,100311.81
2022-08-22T05:06:19.939Z,100308.72
2022-08-22T05:08:53.663Z,100308.66
2022-08-22T05:11:25.390Z,100320.94
2022-08-22T05:14:00.146Z,100316.00
2022-08-22T05:16:34.639Z,100315.09
2022-08-22T05:19:18.253Z,100313.25
2022-08-22T05:21:53.402Z,100315.63
2022-08-22T05:24:28.010Z,100303.00
2022-08-22T05:26:59.249Z,100300.16
2022-08-22T05:29:32.400Z,100304.94
2022-08-22T05:32:05.162Z,100307.78
2022-08-22T05:34:40.483Z,100303.75
2022-08-22T05:37:15.579Z,100310.22
2022-08-22T05:39:50.348Z,100307.69
2022-08-22T05:42:28.071Z,100306.44
2022-08-22T05:44:57.414Z,100306.16
2022-08-22T05:47:36.544Z,100308.34
2022-08-22T05:50:11.843Z,100303.78
2022-08-22T05:52:59.213Z,100310.75
2022-08-22T05:55:32.659Z,100306.47
2022-08-22T05:58:14.496Z,100305.06
2022-08-22T06:00:47.257Z,100306.31
2022-08-22T06:03:22.389Z,100310.34
2022-08-22T06:05:54.554Z,100306.31
2022-08-22T06:08:30.334Z,100306.84
2022-08-22T06:11:04.715Z,100300.84
2022-08-22T06:13:37.341Z,100300.09
2022-08-22T06:16:17.915Z,100306.41
2022-08-22T06:18:49.243Z,100303.88
2022-08-22T06:21:22.988Z,100301.34
2022-08-22T06:23:58.765Z,100306.88
2022-08-22T06:26:33.882Z,100303.50
2022-08-22T06:29:03.994Z,100303.06
2022-08-22T06:31:36.956Z,100304.63
2022-08-22T06:34:10.693Z,100299.63
2022-08-22T06:36:42.438Z,100298.66
2022-08-22T06:39:20.067Z,100295.16
2022-08-22T06:41:53.846Z,100301.00
2022-08-22T06:44:27.024Z,100300.06
2022-08-22T06:47:00.375Z,100299.72
2022-08-22T06:49:31.006Z,100288.84
2022-08-22T06:52:03.275Z,100293.09
2022-08-22T06:54:37.516Z,100292.28
2022-08-22T06:57:08.063Z,100293.03
2022-08-22T06:59:39.901Z,100290.81
2022-08-22T07:02:27.702Z,100286.84
2022-08-22T07:04:57.027Z,100293.06
2022-08-22T07:07:28.938Z,100283.47
2022-08-22T07:09:59.441Z,100292.84
2022-08-22T07:12:33.108Z,100290.34
2022-08-22T07:15:12.168Z,100290.88
2022-08-22T07:17:51.147Z,100297.53
2022-08-22T07:20:25.937Z,100295.25
2022-08-22T07:22:59.604Z,100294.63
2022-08-22T07:25:31.829Z,100297.94
2022-08-22T07:28:18.307Z,100293.16
2022-08-22T07:30:57.716Z,100296.03
2022-08-22T07:33:44.121Z,100301.28
2022-08-22T07:36:41.748Z,100295.22
2022-08-22T07:39:26.296Z,100302.47
2022-08-22T07:42:16.305Z,100306.25
2022-08-22T07:45:00.724Z,100301.84
2022-08-22T07:47:39.598Z,100302.66
2022-08-22T07:50:13.376Z,100307.19
2022-08-22T07:52:45.557Z,100308.22
2022-08-22T07:55:19.961Z,100306.81
2022-08-22T07:57:57.691Z,100294.59
2022-08-22T08:00:29.081Z,100303.25
2022-08-22T08:03:02.512Z,100302.75
2022-08-22T08:05:36.119Z,100301.44
2022-08-22T08:08:13.858Z,100303.06
2022-08-22T08:10:45.077Z,100298.44
2022-08-22T08:13:22.318Z,100297.66
2022-08-22T08:15:52.172Z,100304.03
2022-08-22T08:18:25.986Z,100308.91
2022-08-22T08:20:58.836Z,100302.34
2022-08-22T08:23:33.043Z,100306.50
2022-08-22T08:26:11.202Z,100307.78
2022-08-22T08:28:44.416Z,100307.91
2022-08-22T08:31:22.656Z,100305.38
2022-08-22T08:33:55.095Z,100304.91
2022-08-22T08:36:36.774Z,100297.19
2022-08-22T08:39:14.444Z,100301.53
2022-08-22T08:42:24.576Z,100302.34
2022-08-22T08:45:22.255Z,100298.34
2022-08-22T08:48:09.097Z,100303.03
2022-08-22T08:50:51.572Z,100297.28
2022-08-22T08:53:48.186Z,100301.31
2022-08-22T08:56:27.016Z,100298.06
2022-08-22T08:59:10.259Z,100299.81
2022-08-22T09:05:35.464Z,100295.84
2022-08-22T09:08:56.118Z,100297.44
2022-08-22T09:12:00.563Z,100291.44
2022-08-22T09:14:56.552Z,100296.00
2022-08-22T09:18:07.343Z,100291.75
2022-08-22T09:20:52.444Z,100289.22
2022-08-22T09:24:00.943Z,100288.06
2022-08-22T09:26:43.804Z,100290.97
2022-08-22T09:29:35.255Z,100298.56
2022-08-22T09:32:28.742Z,100302.31
2022-08-22T09:35:08.725Z,100282.81
2022-08-22T09:37:50.392Z,100294.28
2022-08-22T09:40:16.433Z,100294.59
2022-08-22T09:40:29.636Z,100296.13
2022-08-22T09:43:10.976Z,100294.53
2022-08-22T09:45:50.254Z,100295.59
2022-08-22T09:48:44.536Z,100297.34
2022-08-22T09:51:33.305Z,100290.28
2022-08-22T09:54:31.098Z,100294.06
2022-08-22T09:57:29.903Z,100289.63
2022-08-22T10:00:22.257Z,100283.50
2022-08-22T10:03:05.901Z,100293.50
2022-08-22T10:05:45.661Z,100286.97
2022-08-22T10:08:32.167Z,100286.97
2022-08-22T10:11:14.081Z,100285.09
2022-08-22T10:14:00.707Z,100293.06
2022-08-22T10:16:44.754Z,100285.19
2022-08-22T10:19:21.420Z,100297.94
2022-08-22T10:22:20.508Z,100294.34
2022-08-22T10:25:00.040Z,100292.47
2022-08-22T10:27:44.983Z,100294.19
2022-08-22T10:30:18.995Z,100292.59
2022-08-22T10:32:59.280Z,100295.50
2022-08-22T10:35:33.884Z,100289.97
2022-08-22T10:38:10.539Z,100299.91
2022-08-22T10:40:45.502Z,100290.97
2022-08-22T10:43:28.983Z,100297.25
2022-08-22T10:46:12.645Z,100291.75
2022-08-22T10:48:49.524Z,100290.88
2022-08-22T10:51:34.395Z,100289.97
2022-08-22T10:54:30.382Z,100291.81
2022-08-22T10:57:20.739Z,100298.84
2022-08-22T11:00:01.547Z,100290.75
2022-08-22T11:02:53.071Z,100292.50
2022-08-22T11:05:40.513Z,100285.06
2022-08-22T11:08:29.109Z,100291.50
2022-08-22T11:11:21.781Z,100295.25
2022-08-22T11:14:09.025Z,100296.09
2022-08-22T11:16:55.257Z,100289.50
2022-08-22T11:20:07.072Z,100286.06
2022-08-22T11:22:47.887Z,100285.34
2022-08-22T11:25:38.547Z,100283.47
2022-08-22T11:29:02.882Z,100278.16
2022-08-22T11:31:52.379Z,100280.88
2022-08-22T11:34:39.254Z,100278.25
2022-08-22T11:37:19.067Z,100280.94
2022-08-22T11:40:06.005Z,100275.31
2022-08-22T11:42:47.678Z,100271.53
2022-08-22T11:45:22.160Z,100276.13
2022-08-22T11:48:02.632Z,100271.53
2022-08-22T11:50:37.612Z,100266.06
2022-08-22T11:53:22.901Z,100264.28
2022-08-22T11:56:05.554Z,100276.88
2022-08-22T11:58:48.903Z,100269.44
2022-08-22T12:01:21.722Z,100266.00
2022-08-22T12:04:05.974Z,100261.31
2022-08-22T12:07:03.148Z,100265.81
2022-08-22T12:09:50.881Z,100264.19
2022-08-22T12:12:39.068Z,100263.22
2022-08-22T12:15:18.672Z,100266.81
2022-08-22T12:18:31.639Z,100263.22
2022-08-22T12:21:31.686Z,100259.63
2022-08-22T12:24:32.633Z,100260.75
2022-08-22T12:27:28.838Z,100262.50
2022-08-22T12:30:13.680Z,100263.47
2022-08-22T12:33:22.004Z,100264.47
2022-08-22T12:36:17.823Z,100264.41
2022-08-22T12:39:08.951Z,100260.78
2022-08-22T12:42:07.098Z,100261.72
2022-08-22T12:44:48.473Z,100257.97
2022-08-22T12:47:37.319Z,100262.25
2022-08-22T12:50:26.000Z,100250.59
2022-08-22T12:53:10.865Z,100264.25
2022-08-22T12:55:59.465Z,100264.38
2022-08-22T12:58:42.882Z,100266.16
2022-08-22T13:01:13.829Z,100260.78
2022-08-22T13:03:47.651Z,100265.25
2022-08-22T13:06:53.121Z,100256.31
2022-08-22T13:09:30.705Z,100263.38
2022-08-22T13:12:07.310Z,100264.31
2022-08-22T13:14:38.061Z,100267.94
2022-08-22T13:17:24.976Z,100262.47
2022-08-22T13:20:10.373Z,100267.63
2022-08-22T13:22:45.634Z,100272.84
2022-08-22T13:25:25.985Z,100269.31
2022-08-22T13:27:59.454Z,100269.47
2022-08-22T13:30:34.047Z,100271.13
2022-08-22T13:33:11.045Z,100265.69
2022-08-22T13:35:44.669Z,100267.47
2022-08-22T13:38:26.258Z,100275.44
2022-08-22T13:40:57.600Z,100271.88
2022-08-22T13:43:31.168Z,100271.97
2022-08-22T13:46:03.768Z,100271.88
2022-08-22T13:48:49.508Z,100272.69
2022-08-22T13:51:27.815Z,100269.16
2022-08-22T13:54:11.038Z,100263.50
2022-08-22T13:56:50.674Z,100267.09
2022-08-22T13:59:50.309Z,100263.25
2022-08-22T14:02:35.530Z,100266.81
2022-08-22T14:05:12.664Z,100262.31
2022-08-22T14:08:02.708Z,100256.06
2022-08-22T14:10:35.568Z,100257.00
2022-08-22T14:13:39.416Z,100260.66
2022-08-22T14:16:15.023Z,100253.38
2022-08-22T14:18:50.650Z,100256.78
2022-08-22T14:21:39.939Z,100256.63
2022-08-22T14:24:20.175Z,100255.81
2022-08-22T14:26:57.860Z,100255.72
2022-08-22T14:29:32.190Z,100260.00
2022-08-22T14:32:35.259Z,100261.91
2022-08-22T14:35:16.955Z,100258.91
2022-08-22T14:37:54.692Z,100257.06
2022-08-22T14:40:30.169Z,100259.66
2022-08-22T14:43:06.250Z,100254.97
2022-08-22T14:45:40.262Z,100256.78
2022-08-22T14:48:30.257Z,100262.13
2022-08-22T14:51:04.143Z,100262.16
2022-08-22T14:53:35.524Z,100260.34
2022-08-22T14:56:10.872Z,100259.09
2022-08-22T14:58:53.634Z,100261.75
2022-08-22T15:01:25.920Z,100248.94
2022-08-22T15:04:07.166Z,100260.66
2022-08-22T15:06:39.391Z,100259.59
2022-08-22T15:09:35.014Z,100256.88
2022-08-22T15:12:10.549Z,100258.38
2022-08-22T15:14:52.490Z,100252.75
2022-08-22T15:17:44.471Z,100263.34
2022-08-22T15:20:28.521Z,100261.28
2022-08-22T15:23:02.026Z,100267.47
2022-08-22T15:25:35.069Z,100259.22
2022-08-22T15:28:14.489Z,100269.78
2022-08-22T15:31:03.488Z,100260.47
2022-08-22T15:33:35.904Z,100263.88
2022-08-22T15:36:16.300Z,100269.84
2022-08-22T15:38:48.455Z,100275.03
2022-08-22T15:41:37.821Z,100272.91
2022-08-22T15:44:15.054Z,100270.81
2022-08-22T15:47:11.598Z,100275.91
2022-08-22T15:49:51.965Z,100270.19
2022-08-22T15:52:32.222Z,100270.75
2022-08-22T15:55:18.937Z,100273.19
2022-08-22T15:58:02.040Z,100270.19
2022-08-22T16:00:44.933Z,100272.69
2022-08-22T16:03:25.766Z,100271.50
2022-08-22T16:05:58.155Z,100279.28
2022-08-22T16:08:33.259Z,100278.25
2022-08-22T16:11:27.544Z,100280.75
2022-08-22T16:14:22.632Z,100281.28
2022-08-22T16:17:03.381Z,100286.31
2022-08-22T16:19:35.150Z,100278.94
2022-08-22T16:22:15.060Z,100284.06
2022-08-22T16:25:06.170Z,100287.38
2022-08-22T16:27:52.972Z,100288.97
2022-08-22T16:30:34.840Z,100289.56
2022-08-22T16:33:05.509Z,100290.03
2022-08-22T16:36:24.815Z,100289.78
2022-08-22T16:38:57.714Z,100287.88
2022-08-22T16:41:37.467Z,100292.06
2022-08-22T16:44:25.131Z,100302.41
2022-08-22T16:46:55.222Z,100300.41
2022-08-22T16:49:30.779Z,100303.72
2022-08-22T16:52:36.680Z,100302.56
2022-08-22T16:55:06.335Z,100299.72
2022-08-22T16:58:05.059Z,100301.22
2022-08-22T17:00:48.757Z,100301.00
2022-08-22T17:03:28.417Z,100307.88
2022-08-22T17:06:06.377Z,100305.97
2022-08-22T17:08:53.956Z,100299.44
2022-08-22T17:11:35.110Z,100304.34
2022-08-22T17:14:29.891Z,100301.28
2022-08-22T17:17:15.177Z,100304.84
2022-08-22T17:19:54.167Z,100311.66
2022-08-22T17:22:31.948Z,100315.72
2022-08-22T17:25:18.512Z,100306.53
2022-08-22T17:27:54.505Z,100310.59
2022-08-22T17:30:30.445Z,100306.59
2022-08-22T17:33:12.358Z,100313.78
2022-08-22T17:35:55.017Z,100307.25
2022-08-22T17:38:41.439Z,100309.66
2022-08-22T17:41:25.909Z,100301.41
2022-08-22T17:44:04.352Z,100315.44
2022-08-22T17:46:45.894Z,100305.94
2022-08-22T17:49:23.521Z,100313.94
2022-08-22T17:51:58.563Z,100313.69
2022-08-22T17:54:35.691Z,100306.16
2022-08-22T17:57:10.160Z,100310.41
2022-08-22T17:59:47.577Z,100311.00
2022-08-22T18:02:23.366Z,100316.31
2022-08-22T18:05:01.560Z,100319.84
2022-08-22T18:07:42.334Z,100316.88
2022-08-22T18:10:21.629Z,100314.81
2022-08-22T18:13:04.932Z,100324.38
2022-08-22T18:15:42.263Z,100316.00
2022-08-22T18:18:30.373Z,100325.53
2022-08-22T18:21:05.270Z,100322.81
2022-08-22T18:23:40.708Z,100318.03
2022-08-22T18:26:21.875Z,100318.84
2022-08-22T18:28:58.675Z,100319.56
2022-08-22T18:31:39.513Z,100317.38
2022-08-22T18:34:20.156Z,100321.66
2022-08-22T18:36:56.260Z,100319.72
2022-08-22T18:39:30.379Z,100318.53
2022-08-22T18:42:05.675Z,100318.38
2022-08-22T18:44:39.887Z,100311.78
2022-08-22T18:47:16.589Z,100317.81
2022-08-22T18:49:54.715Z,100315.91
2022-08-22T18:52:36.652Z,100316.72
2022-08-22T18:55:42.692Z,100308.59
2022-08-22T18:58:27.944Z,100308.59
2022-08-22T19:01:19.472Z,100318.09
2022-08-22T19:04:14.502Z,100318.59
2022-08-22T19:07:06.928Z,100327.22
2022-08-22T19:10:06.619Z,100323.31
2022-08-22T19:12:57.034Z,100334.41
2022-08-22T19:15:35.683Z,100334.19
2022-08-22T19:18:30.942Z,100330.97
2022-08-22T19:21:40.601Z,100335.06
2022-08-22T19:24:33.171Z,100322.31
2022-08-22T19:27:25.487Z,100327.69
2022-08-22T19:30:07.526Z,100335.53
2022-08-22T19:33:03.043Z,100332.72
2022-08-22T19:36:06.941Z,100335.38
2022-08-22T19:38:58.022Z,100334.94
2022-08-22T19:41:47.971Z,100338.28
2022-08-22T19:44:34.685Z,100337.50
2022-08-22T19:47:11.696Z,100335.91
2022-08-22T19:49:45.245Z,100339.09
2022-08-22T19:52:28.790Z,100341.31
2022-08-22T19:55:10.216Z,100340.88
2022-08-22T19:57:47.785Z,100339.81
2022-08-22T20:00:20.538Z,100347.53
2022-08-22T20:03:02.036Z,100342.00
2022-08-22T20:05:47.371Z,100348.81
2022-08-22T20:08:41.309Z,100348.59
2022-08-22T20:11:24.453Z,100345.84
2022-08-22T20:14:12.447Z,100348.22
2022-08-22T20:17:04.546Z,100348.75
2022-08-22T20:22:46.720Z,100353.38
2022-08-22T20:25:42.698Z,100357.47
2022-08-22T20:28:22.568Z,100359.44
2022-08-22T20:30:59.089Z,100355.47
2022-08-22T20:33:35.460Z,100361.19
2022-08-22T20:36:28.070Z,100360.28
2022-08-22T20:39:00.197Z,100357.34
2022-08-22T20:41:35.712Z,100360.50
2022-08-22T20:44:13.082Z,100365.69
2022-08-22T20:46:53.839Z,100363.72
2022-08-22T20:49:28.619Z,100372.31
2022-08-22T20:52:00.275Z,100366.97
2022-08-22T20:54:31.392Z,100370.16
2022-08-22T20:57:02.573Z,100369.09
2022-08-22T20:59:40.154Z,100378.97
2022-08-22T21:02:16.254Z,100375.06
2022-08-22T21:05:00.271Z,100373.84
2022-08-22T21:07:32.222Z,100380.78
2022-08-22T21:10:23.118Z,100386.00
2022-08-22T21:13:03.602Z,100377.81
2022-08-22T21:15:34.496Z,100379.53
2022-08-22T21:18:06.417Z,100383.91
2022-08-22T21:20:38.884Z,100381.66
2022-08-22T21:23:15.654Z,100384.78
2022-08-22T21:25:56.846Z,100390.25
2022-08-22T21:28:32.404Z,100388.50
2022-08-22T21:31:10.786Z,100387.34
2022-08-22T21:33:49.286Z,100395.84
2022-08-22T21:36:20.700Z,100398.19
2022-08-22T21:38:54.065Z,100395.34
2022-08-22T21:41:28.703Z,100398.00
2022-08-22T21:43:57.895Z,100398.00
2022-08-22T21:46:29.965Z,100400.38
2022-08-22T21:49:05.596Z,100405.56
2022-08-22T21:51:42.791Z,100400.75
2022-08-22T21:54:40.004Z,100396.47
2022-08-22T21:57:24.411Z,100406.97
2022-08-22T21:59:59.307Z,100395.22
2022-08-22T22:02:37.178Z,100404.53
2022-08-22T22:05:11.484Z,100409.66
2022-08-22T22:07:43.221Z,100411.66
2022-08-22T22:10:15.842Z,100404.88
2022-08-22T22:12:46.678Z,100413.66
2022-08-22T22:15:18.306Z,100416.06
2022-08-22T22:17:47.328Z,100412.31
2022-08-22T22:20:19.642Z,100412.78
2022-08-22T22:22:49.054Z,100413.56
2022-08-22T22:25:40.916Z,100417.63
2022-08-22T22:28:13.686Z,100422.47
2022-08-22T22:30:44.185Z,100414.53
2022-08-22T22:33:13.609Z,100416.91
2022-08-22T22:35:44.330Z,100417.44
2022-08-22T22:38:13.954Z,100425.13
2022-08-22T22:40:43.474Z,100422.16
2022-08-22T22:43:12.778Z,100422.81
2022-08-22T22:45:41.852Z,100422.63
2022-08-22T22:48:10.776Z,100424.06
2022-08-22T22:50:44.288Z,100422.88
2022-08-22T22:53:19.833Z,100423.72
2022-08-22T22:56:00.156Z,100424.16
2022-08-22T22:58:29.833Z,100426.53
2022-08-22T23:00:59.308Z,100430.50
2022-08-22T23:03:28.617Z,100422.31
2022-08-22T23:05:58.979Z,100429.13
2022-08-22T23:08:27.975Z,100427.94
2022-08-22T23:10:56.974Z,100429.38
2022-08-22T23:13:25.908Z,100424.72
2022-08-22T23:15:55.713Z,100424.91
2022-08-22T23:18:30.179Z,100431.03
2022-08-22T23:21:11.156Z,100436.31
2022-08-22T23:23:40.155Z,100438.06
2022-08-22T23:26:09.752Z,100433.34
2022-08-22T23:28:38.821Z,100438.38
2022-08-22T23:31:12.709Z,100438.28
2022-08-22T23:33:42.547Z,100444.06
2022-08-22T23:36:15.476Z,100442.19
2022-08-22T23:38:44.814Z,100437.59
2022-08-22T23:41:15.820Z,100447.13
2022-08-22T23:43:47.427Z,100442.97
2022-08-22T23:46:18.792Z,100438.94
2022-08-22T23:48:48.356Z,100439.47
2022-08-22T23:51:22.924Z,100441.81
2022-08-22T23:53:52.305Z,100446.75
2022-08-22T23:56:23.285Z,100455.31
2022-08-22T23:58:53.270Z,100446.81
